createdAt,value
2017-11-05T00:01:25.805Z,13.50
2017-11-05T00:03:53.359Z,14.30
2017-11-05T00:06:21.649Z,12.77
2017-11-05T00:08:49.960Z,14.20
2017-11-05T00:11:17.553Z,13.10
2017-11-05T00:13:45.100Z,15.07
2017-11-05T00:16:12.631Z,19.37
2017-11-05T00:18:40.941Z,20.70
2017-11-05T00:21:08.463Z,24.90
2017-11-05T00:23:36.016Z,25.63
2017-11-05T00:26:03.543Z,21.60
2017-11-05T00:28:31.092Z,19.50
2017-11-05T00:30:58.615Z,16.20
2017-11-05T00:33:26.143Z,16.83
2017-11-05T00:35:53.686Z,20.73
2017-11-05T00:38:21.224Z,15.37
2017-11-05T00:40:49.532Z,16.20
2017-11-05T00:43:17.058Z,12.57
2017-11-05T00:45:45.371Z,23.10
2017-11-05T00:48:12.900Z,19.30
2017-11-05T00:50:41.215Z,19.40
2017-11-05T00:53:08.743Z,21.50
2017-11-05T00:55:37.061Z,18.33
2017-11-05T00:58:04.586Z,27.57
2017-11-05T01:00:32.911Z,26.30
2017-11-05T01:03:00.439Z,22.23
2017-11-05T01:05:27.984Z,20.80
2017-11-05T01:07:56.284Z,16.60
2017-11-05T01:10:23.834Z,22.00
2017-11-05T01:12:52.120Z,24.40
2017-11-05T01:15:19.679Z,20.10
2017-11-05T01:17:47.975Z,20.60
2017-11-05T01:20:15.519Z,20.20
2017-11-05T01:22:43.811Z,19.33
2017-11-05T01:25:11.355Z,26.67
2017-11-05T01:27:39.638Z,26.97
2017-11-05T01:30:07.950Z,23.30
2017-11-05T01:32:35.497Z,31.37
2017-11-05T01:35:03.042Z,30.97
2017-11-05T01:37:31.336Z,24.53
2017-11-05T01:39:58.886Z,22.67
2017-11-05T01:42:27.177Z,20.90
2017-11-05T01:44:55.494Z,21.23
2017-11-05T01:47:23.020Z,19.57
2017-11-05T01:49:51.327Z,21.90
2017-11-05T01:52:18.855Z,19.63
2017-11-05T01:54:47.168Z,18.80
2017-11-05T01:57:14.696Z,19.00
2017-11-05T01:59:43.015Z,19.77
2017-11-05T02:02:10.544Z,19.00
2017-11-05T02:04:38.105Z,27.47
2017-11-05T02:07:05.640Z,30.90
2017-11-05T02:09:33.186Z,30.97
2017-11-05T02:12:00.714Z,29.67
2017-11-05T02:14:28.271Z,31.13
2017-11-05T02:16:55.800Z,27.93
2017-11-05T02:19:24.130Z,37.80
2017-11-05T02:21:51.662Z,43.17
2017-11-05T02:24:19.987Z,42.90
2017-11-05T02:26:47.514Z,40.30
2017-11-05T02:29:15.834Z,34.57
2017-11-05T02:31:43.364Z,36.53
2017-11-05T02:34:11.701Z,31.43
2017-11-05T02:36:39.231Z,38.40
2017-11-05T02:39:06.776Z,36.43
2017-11-05T02:41:34.304Z,34.47
2017-11-05T02:44:01.847Z,40.60
2017-11-05T02:46:29.403Z,36.60
2017-11-05T02:48:56.932Z,34.57
2017-11-05T02:51:24.488Z,37.90
2017-11-05T02:53:52.017Z,39.13
2017-11-05T02:56:19.562Z,42.00
2017-11-05T02:58:47.096Z,38.43
2017-11-05T03:01:14.641Z,30.00
2017-11-05T03:03:42.931Z,38.70
2017-11-05T03:06:10.479Z,35.17
2017-11-05T03:08:38.770Z,47.17
2017-11-05T03:11:06.329Z,44.67
2017-11-05T03:13:34.631Z,38.50
2017-11-05T03:16:02.179Z,48.13
2017-11-05T03:18:29.719Z,45.60
2017-11-05T03:20:57.267Z,46.80
2017-11-05T03:23:24.797Z,46.00
2017-11-05T03:25:52.361Z,48.27
2017-11-05T03:28:19.894Z,46.30
2017-11-05T03:30:48.216Z,41.00
2017-11-05T03:33:15.745Z,44.47
2017-11-05T03:35:44.059Z,43.23
2017-11-05T03:38:11.587Z,46.60
2017-11-05T03:40:39.907Z,44.20
2017-11-05T03:43:08.314Z,47.20
2017-11-05T03:45:35.864Z,34.73
2017-11-05T03:48:03.400Z,34.63
2017-11-05T03:50:30.951Z,31.80
2017-11-05T03:52:58.470Z,25.83
2017-11-05T03:55:26.015Z,31.43
2017-11-05T03:57:53.540Z,27.47
2017-11-05T04:00:21.089Z,22.17
2017-11-05T04:02:49.388Z,32.90
2017-11-05T04:05:16.937Z,33.17
2017-11-05T04:07:45.243Z,28.77
2017-11-05T04:10:12.791Z,33.60
2017-11-05T04:12:40.316Z,27.93
2017-11-05T04:15:07.866Z,33.63
2017-11-05T04:17:35.386Z,33.07
2017-11-05T04:20:02.928Z,24.40
2017-11-05T04:22:30.460Z,23.87
2017-11-05T04:24:58.008Z,23.30
2017-11-05T04:27:25.544Z,22.27
2017-11-05T04:29:53.090Z,22.13
2017-11-05T04:32:21.383Z,33.00
2017-11-05T04:34:48.923Z,29.67
2017-11-05T04:37:17.219Z,25.93
2017-11-05T04:39:44.788Z,26.50
2017-11-05T04:42:12.320Z,28.90
2017-11-05T04:44:39.863Z,27.33
2017-11-05T04:47:07.396Z,27.03
2017-11-05T04:49:34.958Z,26.33
2017-11-05T04:52:02.492Z,30.53
2017-11-05T04:54:30.792Z,26.07
2017-11-05T04:56:58.336Z,24.07
2017-11-05T04:59:26.630Z,21.57
2017-11-05T05:01:54.946Z,17.70
2017-11-05T05:04:22.472Z,17.93
2017-11-05T05:06:50.783Z,16.67
2017-11-05T05:09:18.312Z,16.07
2017-11-05T05:11:46.628Z,16.80
2017-11-05T05:14:14.154Z,16.70
2017-11-05T05:16:42.471Z,17.47
2017-11-05T05:19:10.008Z,17.23
2017-11-05T05:21:37.554Z,14.23
2017-11-05T05:24:05.848Z,23.97
2017-11-05T05:26:33.396Z,26.93
2017-11-05T05:29:01.693Z,26.97
2017-11-05T05:31:29.242Z,26.50
2017-11-05T05:33:57.534Z,23.27
2017-11-05T05:36:25.074Z,20.17
2017-11-05T05:38:53.370Z,24.50
2017-11-05T05:41:20.929Z,24.93
2017-11-05T05:43:49.219Z,21.13
2017-11-05T05:46:16.772Z,27.27
2017-11-05T05:48:45.064Z,26.70
2017-11-05T05:51:12.614Z,29.47
2017-11-05T05:53:40.142Z,31.17
2017-11-05T05:56:07.689Z,28.80
2017-11-05T05:58:35.220Z,29.33
2017-11-05T06:01:02.768Z,31.30
2017-11-05T06:03:30.300Z,27.37
2017-11-05T06:05:58.616Z,27.33
2017-11-05T06:08:26.172Z,27.47
2017-11-05T06:10:53.727Z,29.07
2017-11-05T06:13:21.254Z,28.10
2017-11-05T06:15:48.796Z,27.10
2017-11-05T06:18:16.326Z,25.13
2017-11-05T06:20:43.872Z,23.97
2017-11-05T06:23:12.162Z,19.77
2017-11-05T06:25:39.707Z,27.10
2017-11-05T06:28:08.006Z,21.57
2017-11-05T06:30:35.557Z,21.03
2017-11-05T06:33:03.936Z,27.20
2017-11-05T06:35:32.249Z,25.30
2017-11-05T06:37:59.787Z,20.20
2017-11-05T06:40:27.336Z,20.03
2017-11-05T06:42:55.632Z,20.90
2017-11-05T06:45:23.942Z,19.90
2017-11-05T06:47:51.467Z,18.70
2017-11-05T06:50:19.787Z,20.83
2017-11-05T06:52:47.322Z,20.50
2017-11-05T06:55:15.640Z,17.23
2017-11-05T06:57:43.178Z,20.40
2017-11-05T07:00:10.732Z,17.40
2017-11-05T07:02:38.261Z,20.53
2017-11-05T07:05:05.827Z,15.50
2017-11-05T07:07:34.125Z,22.23
2017-11-05T07:10:01.658Z,21.30
2017-11-05T07:12:29.203Z,23.83
2017-11-05T07:14:56.732Z,24.20
2017-11-05T07:17:24.281Z,24.20
2017-11-05T07:19:51.806Z,26.80
2017-11-05T07:22:19.356Z,27.93
2017-11-05T07:24:46.889Z,24.97
2017-11-05T07:27:14.447Z,28.40
2017-11-05T07:29:41.979Z,25.37
2017-11-05T07:32:10.292Z,27.30
2017-11-05T07:34:37.815Z,28.03
2017-11-05T07:37:06.132Z,22.40
2017-11-05T07:39:33.651Z,22.80
2017-11-05T07:42:01.200Z,25.43
2017-11-05T07:44:28.731Z,23.57
2017-11-05T07:46:56.278Z,23.40
2017-11-05T07:49:23.803Z,21.37
2017-11-05T07:51:51.356Z,26.03
2017-11-05T07:54:18.890Z,18.33
2017-11-05T07:56:46.435Z,17.30
2017-11-05T07:59:13.966Z,18.67
2017-11-05T08:01:41.506Z,19.30
2017-11-05T08:04:09.040Z,21.20
2017-11-05T08:06:36.586Z,20.63
2017-11-05T08:09:04.165Z,21.77
2017-11-05T08:11:31.715Z,24.43
2017-11-05T08:13:59.243Z,22.93
2017-11-05T08:16:27.564Z,21.33
2017-11-05T08:18:55.096Z,22.23
2017-11-05T08:21:23.407Z,18.27
2017-11-05T08:23:50.934Z,16.80
2017-11-05T08:26:19.243Z,16.60
2017-11-05T08:28:46.772Z,20.60
2017-11-05T08:31:15.087Z,21.13
2017-11-05T08:33:42.614Z,17.60
2017-11-05T08:36:10.976Z,15.70
2017-11-05T08:38:38.505Z,19.83
2017-11-05T08:41:06.050Z,17.80
2017-11-05T08:43:33.583Z,22.37
2017-11-05T08:46:01.914Z,21.70
2017-11-05T08:48:29.478Z,21.17
2017-11-05T08:50:57.037Z,20.07
2017-11-05T08:53:24.559Z,23.30
2017-11-05T08:55:52.864Z,23.53
2017-11-05T08:58:20.407Z,20.50
2017-11-05T09:00:48.719Z,18.93
2017-11-05T09:03:16.239Z,23.40
2017-11-05T09:05:44.552Z,16.97
2017-11-05T09:08:12.093Z,19.73
2017-11-05T09:10:39.644Z,20.77
2017-11-05T09:13:07.983Z,18.20
2017-11-05T09:15:35.520Z,16.43
2017-11-05T09:18:03.992Z,14.73
2017-11-05T09:20:31.524Z,13.60
2017-11-05T09:22:59.835Z,12.80
2017-11-05T09:25:27.358Z,16.80
2017-11-05T09:27:55.665Z,19.03
2017-11-05T09:30:23.195Z,16.80
2017-11-05T09:32:51.507Z,20.13
2017-11-05T09:35:19.032Z,14.37
2017-11-05T09:37:47.347Z,14.90
2017-11-05T09:40:14.879Z,13.20
2017-11-05T09:42:43.189Z,14.80
2017-11-05T09:45:10.710Z,13.27
2017-11-05T09:47:39.023Z,17.60
2017-11-05T09:50:06.616Z,19.90
2017-11-05T09:52:34.159Z,18.40
2017-11-05T09:55:01.727Z,20.37
2017-11-05T09:57:29.303Z,21.97
2017-11-05T09:59:56.844Z,21.50
2017-11-05T10:02:24.395Z,20.30
2017-11-05T10:04:51.916Z,20.67
2017-11-05T10:07:20.232Z,18.87
2017-11-05T10:09:47.762Z,16.70
2017-11-05T10:12:16.070Z,16.60
2017-11-05T10:14:43.594Z,16.67
2017-11-05T10:17:11.911Z,15.40
2017-11-05T10:19:39.436Z,13.77
2017-11-05T10:22:07.747Z,13.57
2017-11-05T10:24:35.271Z,13.33
2017-11-05T10:27:02.827Z,12.20
2017-11-05T10:29:30.355Z,14.90
2017-11-05T10:31:57.894Z,15.33
2017-11-05T10:34:25.410Z,19.93
2017-11-05T10:36:53.723Z,20.33
2017-11-05T10:39:22.076Z,19.20
2017-11-05T10:41:50.387Z,15.80
2017-11-05T10:44:17.915Z,18.60
2017-11-05T10:46:46.223Z,23.70
2017-11-05T10:49:13.752Z,24.70
2017-11-05T10:51:42.066Z,24.37
2017-11-05T10:54:09.607Z,26.40
2017-11-05T10:56:37.142Z,24.87
2017-11-05T10:59:04.668Z,23.37
2017-11-05T11:01:32.213Z,24.70
2017-11-05T11:03:59.739Z,20.33
2017-11-05T11:06:28.042Z,20.17
2017-11-05T11:08:55.576Z,21.67
2017-11-05T11:11:23.887Z,23.70
2017-11-05T11:13:51.424Z,23.03
2017-11-05T11:16:19.735Z,23.30
2017-11-05T11:18:47.263Z,21.83
2017-11-05T11:21:15.555Z,22.03
2017-11-05T11:23:43.108Z,23.07
2017-11-05T11:26:10.631Z,21.30
2017-11-05T11:28:38.180Z,21.27
2017-11-05T11:31:05.704Z,19.93
2017-11-05T11:33:33.253Z,18.20
2017-11-05T11:36:00.778Z,13.80
2017-11-05T11:38:28.326Z,8.97
2017-11-05T11:40:55.878Z,3.07
2017-11-05T11:43:23.426Z,1.67
2017-11-05T11:45:50.948Z,1.70
2017-11-05T11:48:18.502Z,1.20
2017-11-05T11:50:46.789Z,1.03
2017-11-05T11:53:14.332Z,1.00
2017-11-05T11:55:42.615Z,1.40
2017-11-05T11:58:10.918Z,1.20
2017-11-05T12:00:38.439Z,0.93
2017-11-05T12:03:05.987Z,0.90
2017-11-05T12:05:33.541Z,0.53
2017-11-05T12:08:01.087Z,2.10
2017-11-05T12:10:28.608Z,3.83
2017-11-05T12:12:56.157Z,12.10
2017-11-05T12:15:24.448Z,9.27
2017-11-05T12:17:51.996Z,4.37
2017-11-05T12:20:20.288Z,2.73
2017-11-05T12:22:47.816Z,4.37
2017-11-05T12:25:16.115Z,1.20
2017-11-05T12:27:44.423Z,2.63
2017-11-05T12:30:11.946Z,1.50
2017-11-05T12:32:40.250Z,1.90
2017-11-05T12:35:07.771Z,1.57
2017-11-05T12:37:35.312Z,1.20
2017-11-05T12:40:02.835Z,1.20
2017-11-05T12:42:30.382Z,1.10
2017-11-05T12:44:57.909Z,1.57
2017-11-05T12:47:25.463Z,1.00
2017-11-05T12:49:52.977Z,0.67
2017-11-05T12:52:20.520Z,1.50
2017-11-05T12:54:48.812Z,0.70
2017-11-05T12:57:16.358Z,0.67
2017-11-05T12:59:44.644Z,0.90
2017-11-05T13:02:12.947Z,1.40
2017-11-05T13:04:40.472Z,1.93
2017-11-05T13:07:08.833Z,1.60
2017-11-05T13:09:36.359Z,1.20
2017-11-05T13:12:03.910Z,2.63
2017-11-05T13:14:31.432Z,5.10
2017-11-05T13:16:59.754Z,1.37
2017-11-05T13:19:27.272Z,1.80
2017-11-05T13:21:54.792Z,2.40
2017-11-05T13:24:22.386Z,6.23
2017-11-05T13:26:49.904Z,4.40
2017-11-05T13:29:17.438Z,4.93
2017-11-05T13:31:44.963Z,8.90
2017-11-05T13:34:12.498Z,2.80
2017-11-05T13:36:40.023Z,3.20
2017-11-05T13:39:07.563Z,2.60
2017-11-05T13:41:35.847Z,1.70
2017-11-05T13:44:04.159Z,1.53
2017-11-05T13:46:31.733Z,7.73
2017-11-05T13:48:59.272Z,2.10
2017-11-05T13:51:26.841Z,2.10
2017-11-05T13:53:54.380Z,1.87
2017-11-05T13:56:22.717Z,1.70
2017-11-05T13:58:50.262Z,1.20
2017-11-05T14:01:17.778Z,1.10
2017-11-05T14:03:46.079Z,2.40
2017-11-05T14:06:13.613Z,1.80
2017-11-05T14:08:41.914Z,1.60
2017-11-05T14:11:09.487Z,2.17
2017-11-05T14:13:37.024Z,2.67
2017-11-05T14:16:05.312Z,9.90
2017-11-05T14:18:32.856Z,5.10
2017-11-05T14:21:01.147Z,2.80
2017-11-05T14:23:28.702Z,3.23
2017-11-05T14:25:56.987Z,3.00
2017-11-05T14:28:24.540Z,1.90
2017-11-05T14:30:52.822Z,2.30
2017-11-05T14:33:20.410Z,3.83
2017-11-05T14:35:47.932Z,2.70
2017-11-05T14:38:16.248Z,5.13
2017-11-05T14:40:43.766Z,2.70
2017-11-05T14:43:12.071Z,2.83
2017-11-05T14:45:39.615Z,4.77
2017-11-05T14:48:07.211Z,1.13
2017-11-05T14:50:34.787Z,1.30
2017-11-05T14:53:02.322Z,2.23
2017-11-05T14:55:29.842Z,1.30
2017-11-05T14:57:57.434Z,1.90
2017-11-05T15:00:24.951Z,1.47
2017-11-05T15:02:52.498Z,1.67
2017-11-05T15:05:20.019Z,1.63
2017-11-05T15:07:47.559Z,1.57
2017-11-05T15:10:15.847Z,0.80
2017-11-05T15:12:43.387Z,1.77
2017-11-05T15:15:11.675Z,2.07
2017-11-05T15:17:40.068Z,2.33
2017-11-05T15:20:08.402Z,1.83
2017-11-05T15:22:35.969Z,3.80
2017-11-05T15:25:03.493Z,2.30
2017-11-05T15:27:31.019Z,2.10
2017-11-05T15:29:59.323Z,1.33
2017-11-05T15:32:26.846Z,1.40
2017-11-05T15:34:54.383Z,1.60
2017-11-05T15:37:21.959Z,2.03
2017-11-05T15:39:49.507Z,2.23
2017-11-05T15:42:17.034Z,1.83
2017-11-05T15:44:44.580Z,2.00
2017-11-05T15:47:12.100Z,3.20
2017-11-05T15:49:39.644Z,1.67
2017-11-05T15:52:07.162Z,4.30
2017-11-05T15:54:35.479Z,16.00
2017-11-05T15:57:03.050Z,7.20
2017-11-05T15:59:33.291Z,3.50
2017-11-05T16:02:00.812Z,1.53
2017-11-05T16:04:28.346Z,2.23
2017-11-05T16:06:56.635Z,1.73
2017-11-05T16:09:24.171Z,2.03
2017-11-05T16:11:51.687Z,2.77
2017-11-05T16:14:19.219Z,3.80
2017-11-05T16:16:46.796Z,3.50
2017-11-05T16:19:14.341Z,2.67
2017-11-05T16:21:41.912Z,2.40
2017-11-05T16:24:09.499Z,3.37
2017-11-05T16:26:37.015Z,3.07
2017-11-05T16:29:05.325Z,2.60
2017-11-05T16:31:32.842Z,1.40
2017-11-05T16:34:01.144Z,2.00
2017-11-05T16:36:28.669Z,2.10
2017-11-05T16:38:56.270Z,2.07
2017-11-05T16:41:23.851Z,1.80
2017-11-05T16:43:51.447Z,2.80
2017-11-05T16:46:19.016Z,2.30
2017-11-05T16:48:46.555Z,1.23
2017-11-05T16:51:14.121Z,2.40
2017-11-05T16:53:41.676Z,2.93
2017-11-05T16:56:09.204Z,3.00
2017-11-05T16:58:36.742Z,3.70
2017-11-05T17:01:05.079Z,3.40
2017-11-05T17:03:32.673Z,4.10
2017-11-05T17:06:00.196Z,4.53
2017-11-05T17:08:28.526Z,6.80
2017-11-05T17:10:56.860Z,4.83
2017-11-05T17:13:24.399Z,4.30
2017-11-05T17:15:51.919Z,4.13
2017-11-05T17:18:20.323Z,3.70
2017-11-05T17:20:47.835Z,4.40
2017-11-05T17:23:15.385Z,3.50
2017-11-05T17:25:42.970Z,3.27
2017-11-05T17:28:10.496Z,4.03
2017-11-05T17:30:38.027Z,2.93
2017-11-05T17:33:05.547Z,4.07
2017-11-05T17:35:33.231Z,4.60
2017-11-05T17:38:00.771Z,5.17
2017-11-05T17:40:28.321Z,5.37
2017-11-05T17:42:55.843Z,5.50
2017-11-05T17:45:23.627Z,4.17
2017-11-05T17:47:51.151Z,4.90
2017-11-05T17:50:18.754Z,5.17
2017-11-05T17:52:46.321Z,4.20
2017-11-05T17:55:13.931Z,4.70
2017-11-05T17:57:42.221Z,4.23
2017-11-05T18:00:09.767Z,3.90
2017-11-05T18:02:38.051Z,4.90
2017-11-05T18:05:06.362Z,3.70
2017-11-05T18:07:33.887Z,4.97
2017-11-05T18:10:02.238Z,4.00
2017-11-05T18:12:29.762Z,3.43
2017-11-05T18:14:57.361Z,5.00
2017-11-05T18:17:24.887Z,4.10
2017-11-05T18:19:52.476Z,4.33
2017-11-05T18:22:20.047Z,2.83
2017-11-05T18:24:47.583Z,3.43
2017-11-05T18:27:15.154Z,2.90
2017-11-05T18:29:42.754Z,3.30
2017-11-05T18:32:11.049Z,3.10
2017-11-05T18:34:38.647Z,2.40
2017-11-05T18:37:06.175Z,2.90
2017-11-05T18:39:33.720Z,3.90
2017-11-05T18:42:02.016Z,3.73
2017-11-05T18:44:29.573Z,4.47
2017-11-05T18:46:57.094Z,3.63
2017-11-05T18:49:24.642Z,3.80
2017-11-05T18:51:52.210Z,4.23
2017-11-05T18:54:19.803Z,4.00
2017-11-05T18:56:48.096Z,3.10
2017-11-05T18:59:15.643Z,3.30
2017-11-05T19:01:43.927Z,3.83
2017-11-05T19:04:12.286Z,4.33
2017-11-05T19:06:39.808Z,3.27
2017-11-05T19:09:07.343Z,3.33
2017-11-05T19:11:34.862Z,5.93
2017-11-05T19:14:02.442Z,5.10
2017-11-05T19:16:30.801Z,4.73
2017-11-05T19:18:58.371Z,5.40
2017-11-05T19:21:25.915Z,4.47
2017-11-05T19:23:53.430Z,4.20
2017-11-05T19:26:21.022Z,4.37
2017-11-05T19:28:48.551Z,4.87
2017-11-05T19:31:16.855Z,3.97
2017-11-05T19:33:44.447Z,4.30
2017-11-05T19:36:11.983Z,5.50
2017-11-05T19:38:39.510Z,8.00
2017-11-05T19:41:07.869Z,8.57
2017-11-05T19:43:35.395Z,7.50
2017-11-05T19:46:02.995Z,6.97
2017-11-05T19:48:30.525Z,10.10
2017-11-05T19:50:58.131Z,11.10
2017-11-05T19:53:25.715Z,9.17
2017-11-05T19:55:54.079Z,9.43
2017-11-05T19:58:21.663Z,10.07
2017-11-05T20:00:50.027Z,10.33
2017-11-05T20:03:17.555Z,11.90
2017-11-05T20:05:45.107Z,15.50
2017-11-05T20:08:12.682Z,13.63
2017-11-05T20:10:40.259Z,13.60
2017-11-05T20:13:07.863Z,11.17
2017-11-05T20:15:35.443Z,10.53
2017-11-05T20:18:03.760Z,13.90
2017-11-05T20:20:31.330Z,9.40
2017-11-05T20:22:58.925Z,11.53
2017-11-05T20:25:26.503Z,11.20
2017-11-05T20:27:54.107Z,11.80
2017-11-05T20:30:21.634Z,10.73
2017-11-05T20:32:49.179Z,11.77
2017-11-05T20:35:16.753Z,11.07
2017-11-05T20:37:44.308Z,13.87
2017-11-05T20:40:11.894Z,12.93
2017-11-05T20:42:39.441Z,12.03
2017-11-05T20:45:07.028Z,10.23
2017-11-05T20:47:34.626Z,10.70
2017-11-05T20:50:02.146Z,8.87
2017-11-05T20:52:29.688Z,9.30
2017-11-05T20:54:57.218Z,11.17
2017-11-05T20:57:24.821Z,9.77
2017-11-05T20:59:53.176Z,10.50
2017-11-05T21:02:20.723Z,12.93
2017-11-05T21:04:49.066Z,9.40
2017-11-05T21:07:16.707Z,11.10
2017-11-05T21:09:44.235Z,10.10
2017-11-05T21:12:12.594Z,12.10
2017-11-05T21:14:40.179Z,12.53
2017-11-05T21:17:08.547Z,12.30
2017-11-05T21:19:36.123Z,11.83
2017-11-05T21:22:04.436Z,9.83
2017-11-05T21:24:32.016Z,11.10
2017-11-05T21:26:59.540Z,13.13
2017-11-05T21:29:27.856Z,12.20
2017-11-05T21:31:55.379Z,9.90
2017-11-05T21:34:23.690Z,10.77
2017-11-05T21:36:51.267Z,10.10
2017-11-05T21:39:18.814Z,11.07
2017-11-05T21:41:46.396Z,9.53
2017-11-05T21:44:13.995Z,9.47
2017-11-05T21:46:41.571Z,11.13
2017-11-05T21:49:09.177Z,11.50
2017-11-05T21:51:36.711Z,11.73
2017-11-05T21:54:05.080Z,11.07
2017-11-05T21:56:32.608Z,12.87
2017-11-05T21:59:00.159Z,14.27
2017-11-05T22:01:27.696Z,12.00
2017-11-05T22:03:55.303Z,11.83
2017-11-05T22:06:22.836Z,13.40
2017-11-05T22:08:50.378Z,11.57
2017-11-05T22:11:18.666Z,11.63
2017-11-05T22:13:47.027Z,12.30
2017-11-05T22:16:14.608Z,13.00
2017-11-05T22:18:42.976Z,17.83
2017-11-05T22:21:10.559Z,14.33
2017-11-05T22:23:38.873Z,16.10
2017-11-05T22:26:06.398Z,14.17
2017-11-05T22:28:33.948Z,12.33
2017-11-05T22:31:01.481Z,12.33
2017-11-05T22:33:29.091Z,11.83
2017-11-05T22:35:56.621Z,12.00
2017-11-05T22:38:24.165Z,11.70
2017-11-05T22:40:51.692Z,10.43
2017-11-05T22:43:19.236Z,12.77
2017-11-05T22:45:46.761Z,13.10
2017-11-05T22:48:14.306Z,11.97
2017-11-05T22:50:42.604Z,13.10
2017-11-05T22:53:10.155Z,13.13
2017-11-05T22:55:38.447Z,10.60
2017-11-05T22:58:05.995Z,10.67
2017-11-05T23:00:34.283Z,10.63
2017-11-05T23:03:02.600Z,10.50
2017-11-05T23:05:30.131Z,11.93
2017-11-05T23:07:57.678Z,11.07
2017-11-05T23:10:25.198Z,10.20
2017-11-05T23:12:52.752Z,10.90
2017-11-05T23:15:20.288Z,10.70
2017-11-05T23:17:47.822Z,9.60
2017-11-05T23:20:15.360Z,9.97
2017-11-05T23:22:42.904Z,9.40
2017-11-05T23:25:10.423Z,9.30
2017-11-05T23:27:37.971Z,10.13
2017-11-05T23:30:05.507Z,9.63
2017-11-05T23:32:33.030Z,8.63
2017-11-05T23:35:01.340Z,8.20
2017-11-05T23:37:28.868Z,10.60
2017-11-05T23:39:56.431Z,10.37
2017-11-05T23:42:23.960Z,9.43
2017-11-05T23:44:51.503Z,9.77
2017-11-05T23:47:19.030Z,9.77
2017-11-05T23:49:47.348Z,8.73
2017-11-05T23:52:14.871Z,10.10
2017-11-05T23:54:42.415Z,9.43
2017-11-05T23:57:09.943Z,10.10
2017-11-05T23:59:37.497Z,11.07
